Time;durP1;ratioP1;P1;durP2;ratioP2;P2;SDS_P1;SDS_P2;PMS_P1;PMS_P2;Temp;Humidity;BMP_temperature;BMP_pressure;BME280_temperature;BME280_humidity;BME280_pressure;Samples;Min_cycle;Max_cycle;Signal;HPM_P1;HPM_P2
2023/05/26 00:00:39;;;;;;;8.33;7.57;;;17.00;48.90;;;;;;20829;6684;289543;-76
2023/05/26 00:03:18;;;;;;;7.87;7.17;;;17.30;48.30;;;;;;20995;6684;116696;-74
2023/05/26 00:05:50;;;;;;;7.40;6.83;;;17.10;48.10;;;;;;21029;6684;119477;-74
2023/05/26 00:08:26;;;;;;;7.73;7.10;;;16.50;48.70;;;;;;21047;6684;116773;-74
2023/05/26 00:11:02;;;;;;;10.90;7.27;;;16.50;48.70;;;;;;21053;6684;117227;-74
2023/05/26 00:13:37;;;;;;;7.67;6.97;;;16.30;49.00;;;;;;20939;6684;119475;-74
2023/05/26 00:16:13;;;;;;;9.30;8.57;;;16.10;49.30;;;;;;20835;6684;275178;-74
2023/05/26 00:18:49;;;;;;;8.07;7.47;;;16.40;50.20;;;;;;21043;6684;122589;-75
2023/05/26 00:21:24;;;;;;;8.33;7.57;;;16.40;49.80;;;;;;21032;6684;119301;-76
2023/05/26 00:24:00;;;;;;;9.57;8.70;;;16.20;49.80;;;;;;20695;6684;311386;-75
2023/05/26 00:26:35;;;;;;;8.40;7.57;;;16.50;50.30;;;;;;20940;6717;117364;-74
2023/05/26 00:29:12;;;;;;;7.73;7.07;;;16.30;50.10;;;;;;20998;6699;118809;-74
2023/05/26 00:31:47;;;;;;;9.23;7.10;;;16.30;50.10;;;;;;20953;6709;123484;-76
2023/05/26 00:34:23;;;;;;;7.97;7.20;;;16.10;50.50;;;;;;20805;6709;117318;-75
2023/05/26 00:36:58;;;;;;;7.73;7.13;;;16.10;50.30;;;;;;20950;6714;117331;-74
2023/05/26 00:39:35;;;;;;;8.93;8.00;;;16.00;50.40;;;;;;20751;6699;279722;-74
2023/05/26 00:42:10;;;;;;;7.63;6.93;;;16.40;50.60;;;;;;20948;6717;117882;-74
2023/05/26 00:44:45;;;;;;;8.40;7.73;;;16.50;50.20;;;;;;20842;6699;116975;-76
2023/05/26 00:47:22;;;;;;;8.57;7.90;;;16.40;50.20;;;;;;21058;6684;117197;-74
2023/05/26 00:49:58;;;;;;;9.27;8.48;;;16.30;51.00;;;;;;20778;6699;305035;-75
2023/05/26 00:52:34;;;;;;;9.67;8.87;;;17.10;50.00;;;;;;20831;6687;276124;-75
2023/05/26 00:55:09;;;;;;;9.77;8.88;;;17.10;50.00;;;;;;20791;6699;277222;-74
2023/05/26 00:57:45;;;;;;;9.10;8.40;;;17.40;49.30;;;;;;20774;6699;304912;-74
2023/05/26 01:00:22;;;;;;;9.05;8.45;;;17.70;48.80;;;;;;20791;6699;275612;-74
2023/05/26 01:03:02;;;;;;;9.13;8.20;;;17.80;48.40;;;;;;20931;6714;118429;-74
2023/05/26 01:05:35;;;;;;;7.73;7.13;;;17.10;48.90;;;;;;20982;6699;119684;-74
2023/05/26 01:08:10;;;;;;;9.33;8.43;;;17.10;48.90;;;;;;20780;6699;305873;-75
2023/05/26 01:10:46;;;;;;;9.27;8.48;;;17.20;49.40;;;;;;20781;6699;339893;-74
2023/05/26 01:13:22;;;;;;;9.47;8.60;;;17.70;49.10;;;;;;20701;6699;306889;-74
2023/05/26 01:15:58;;;;;;;9.93;8.93;;;17.70;49.10;;;;;;20993;6699;116942;-75
2023/05/26 01:18:41;;;;;;;9.80;8.80;;;17.50;49.10;;;;;;20951;6714;117874;-76
2023/05/26 01:21:17;;;;;;;9.83;9.03;;;17.10;49.50;;;;;;20690;6724;306926;-75
2023/05/26 01:24:08;;;;;;;9.13;8.33;;;17.20;49.90;;;;;;20842;6714;118172;-75
2023/05/26 01:27:09;;;;;;;8.47;7.73;;;17.10;49.80;;;;;;20988;6699;116847;-75
2023/05/26 01:29:45;;;;;;;9.37;8.37;;;16.80;50.00;;;;;;20986;6699;118829;-75
2023/05/26 01:32:23;;;;;;;8.57;7.97;;;16.50;50.30;;;;;;21006;6699;116873;-76
2023/05/26 01:34:56;;;;;;;8.27;7.57;;;16.30;50.60;;;;;;20827;6714;117569;-75
2023/05/26 01:37:32;;;;;;;8.47;7.63;;;16.20;50.80;;;;;;20956;6709;118067;-76
2023/05/26 01:40:09;;;;;;;9.95;9.15;;;16.10;51.10;;;;;;20807;6691;307610;-75
2023/05/26 01:42:46;;;;;;;8.60;7.90;;;16.40;51.70;;;;;;20938;6714;117313;-74
2023/05/26 01:45:21;;;;;;;9.53;8.63;;;16.40;51.80;;;;;;20922;6714;116883;-74
2023/05/26 01:47:58;;;;;;;11.12;10.13;;;16.20;51.20;;;;;;20719;6706;334002;-74
2023/05/26 01:50:33;;;;;;;8.90;8.07;;;16.40;51.20;;;;;;20966;6706;117292;-74
2023/05/26 01:53:12;;;;;;;11.07;10.13;;;16.40;51.00;;;;;;20711;6706;278076;-75
2023/05/26 01:55:45;;;;;;;9.77;8.70;;;16.60;51.10;;;;;;20968;6684;120198;-74
2023/05/26 01:58:20;;;;;;;9.60;8.60;;;16.40;50.70;;;;;;20953;6714;122455;-74
2023/05/26 02:00:56;;;;;;;8.63;7.90;;;16.20;51.00;;;;;;21003;6714;119833;-74
2023/05/26 02:03:32;;;;;;;10.63;9.63;;;16.20;51.40;;;;;;20650;6714;315315;-74
2023/05/26 02:06:13;;;;;;;8.77;8.03;;;16.20;51.40;;;;;;20970;6706;116965;-75
2023/05/26 02:08:43;;;;;;;8.20;7.43;;;16.20;51.10;;;;;;20968;6709;117229;-74
2023/05/26 02:11:19;;;;;;;8.80;8.10;;;16.00;51.20;;;;;;21005;6691;116715;-73
2023/05/26 02:13:55;;;;;;;9.88;9.07;;;15.80;51.30;;;;;;20686;6706;306216;-74
2023/05/26 02:16:32;;;;;;;9.07;8.17;;;16.10;51.50;;;;;;20949;6714;116696;-75
2023/05/26 02:19:07;;;;;;;8.23;7.50;;;16.10;51.20;;;;;;21044;6699;118159;-75
2023/05/26 02:21:41;;;;;;;9.43;8.63;;;15.90;51.40;;;;;;20783;6699;278973;-74
2023/05/26 02:24:17;;;;;;;10.20;9.20;;;16.20;51.50;;;;;;20667;6699;277610;-75
2023/05/26 02:26:52;;;;;;;8.83;8.13;;;16.60;50.80;;;;;;21043;6699;117417;-75
2023/05/26 02:29:28;;;;;;;9.20;8.30;;;16.50;50.60;;;;;;21011;6699;117491;-75
2023/05/26 02:32:04;;;;;;;7.80;7.20;;;16.30;50.90;;;;;;20984;6703;116991;-76
2023/05/26 02:34:40;;;;;;;9.63;8.93;;;16.30;51.50;;;;;;20565;6714;340589;-77
2023/05/26 02:37:17;;;;;;;8.27;7.60;;;16.30;52.00;;;;;;20967;6699;121857;-75
2023/05/26 02:39:51;;;;;;;9.57;8.67;;;16.30;51.10;;;;;;20741;6706;305295;-75
2023/05/26 02:42:27;;;;;;;9.77;8.93;;;16.50;50.90;;;;;;20760;6706;306317;-76
2023/05/26 02:45:03;;;;;;;8.13;7.50;;;16.80;50.40;;;;;;20683;6788;269106;-75
2023/05/26 02:47:39;;;;;;;7.60;6.93;;;16.70;50.10;;;;;;21010;6688;118335;-76
2023/05/26 02:50:15;;;;;;;9.23;8.43;;;16.40;50.50;;;;;;20825;6699;305822;-75
2023/05/26 02:52:51;;;;;;;8.70;8.00;;;16.40;50.40;;;;;;21014;6699;117867;-76
2023/05/26 02:55:27;;;;;;;7.77;7.17;;;16.40;50.20;;;;;;20972;6699;117151;-75
2023/05/26 02:58:02;;;;;;;8.10;7.07;;;16.20;50.60;;;;;;20964;6699;116976;-76
2023/05/26 03:00:38;;;;;;;9.68;8.88;;;15.90;50.80;;;;;;20750;6699;279135;-77
2023/05/26 03:03:13;;;;;;;8.97;8.27;;;16.20;51.00;;;;;;20650;6699;278901;-74
2023/05/26 03:05:49;;;;;;;8.87;7.97;;;16.50;51.10;;;;;;20925;6698;116602;-75
2023/05/26 03:08:24;;;;;;;7.97;7.37;;;16.40;50.60;;;;;;20926;6699;116955;-75
2023/05/26 03:11:00;;;;;;;8.43;7.73;;;16.20;50.60;;;;;;20910;6714;116808;-77
2023/05/26 03:13:36;;;;;;;10.35;9.45;;;15.90;50.80;;;;;;20574;6714;312154;-75
2023/05/26 03:16:11;;;;;;;8.97;8.17;;;16.10;50.90;;;;;;20898;6714;117046;-75
2023/05/26 03:18:47;;;;;;;8.40;7.60;;;16.00;50.70;;;;;;20965;6691;116705;-75
2023/05/26 03:21:22;;;;;;;9.73;7.40;;;15.80;51.00;;;;;;20947;6699;116945;-76
2023/05/26 03:23:58;;;;;;;9.32;8.55;;;15.60;51.20;;;;;;20683;6684;281658;-76
2023/05/26 03:26:33;;;;;;;8.93;8.13;;;15.90;51.40;;;;;;20819;6699;304063;-74
2023/05/26 03:29:09;;;;;;;9.30;8.50;;;16.30;50.90;;;;;;20986;6702;116840;-75
2023/05/26 03:31:46;;;;;;;9.77;8.80;;;16.20;50.60;;;;;;20760;6699;305339;-77
2023/05/26 03:34:23;;;;;;;9.83;9.03;;;16.30;50.80;;;;;;20672;6684;307524;-75
2023/05/26 03:36:57;;;;;;;9.40;8.60;;;16.50;49.90;;;;;;20824;6699;336108;-74
2023/05/26 03:39:38;;;;;;;9.87;9.17;;;16.70;49.50;;;;;;20734;6702;276990;-74
2023/05/26 03:42:08;;;;;;;8.93;8.03;;;16.80;49.10;;;;;;20956;6714;116645;-76
2023/05/26 03:44:44;;;;;;;7.73;7.00;;;16.50;49.30;;;;;;20841;6702;118105;-74
2023/05/26 03:47:20;;;;;;;9.38;8.48;;;16.10;50.00;;;;;;20751;6707;310341;-73
2023/05/26 03:49:55;;;;;;;7.97;7.37;;;16.10;50.30;;;;;;20995;6699;117442;-73
2023/05/26 03:52:31;;;;;;;9.45;8.52;;;16.20;50.30;;;;;;20836;6699;277253;-73
2023/05/26 03:55:09;;;;;;;8.50;7.63;;;16.20;50.30;;;;;;20998;6714;119641;-73
2023/05/26 03:57:44;;;;;;;9.23;8.43;;;16.10;50.30;;;;;;20721;6714;309658;-73
2023/05/26 04:00:19;;;;;;;8.53;7.83;;;16.20;50.30;;;;;;20996;6699;118457;-73
2023/05/26 04:02:55;;;;;;;8.87;7.63;;;16.10;50.30;;;;;;20926;6714;117805;-73
2023/05/26 04:05:31;;;;;;;10.90;9.88;;;15.80;50.60;;;;;;20809;6684;304012;-73
2023/05/26 04:08:06;;;;;;;10.67;9.87;;;16.00;50.50;;;;;;20784;6699;306434;-75
2023/05/26 04:10:42;;;;;;;8.77;8.13;;;16.40;50.10;;;;;;20997;6699;117656;-73
2023/05/26 04:13:17;;;;;;;8.77;7.53;;;16.20;50.00;;;;;;20964;6691;118911;-72
2023/05/26 04:15:53;;;;;;;10.40;9.40;;;16.00;50.50;;;;;;20737;6706;276464;-74
2023/05/26 04:18:29;;;;;;;9.90;9.10;;;16.10;50.40;;;;;;20774;6705;312211;-73
2023/05/26 04:21:04;;;;;;;11.65;10.55;;;16.40;50.00;;;;;;20753;6699;306282;-74
2023/05/26 04:23:40;;;;;;;13.30;12.10;;;16.60;49.50;;;;;;20793;6714;117778;-75
2023/05/26 04:26:21;;;;;;;32.03;25.50;;;16.40;49.60;;;;;;21012;6699;117128;-77
2023/05/26 04:28:52;;;;;;;23.92;21.55;;;16.10;50.10;;;;;;20800;6684;279473;-71
2023/05/26 04:31:28;;;;;;;8.97;8.03;;;16.20;50.40;;;;;;21012;6684;117202;-72
2023/05/26 04:34:02;;;;;;;8.40;7.70;;;16.10;50.40;;;;;;20905;6684;117764;-72
2023/05/26 04:36:41;;;;;;;8.57;7.80;;;15.90;50.80;;;;;;20838;6684;293228;-75
2023/05/26 04:39:13;;;;;;;8.93;8.33;;;16.10;51.80;;;;;;20834;6684;280181;-73
2023/05/26 04:41:49;;;;;;;9.38;8.63;;;16.50;51.70;;;;;;20821;6684;305048;-71
2023/05/26 04:44:25;;;;;;;9.03;8.17;;;17.00;50.00;;;;;;20665;6684;312465;-74
2023/05/26 04:47:02;;;;;;;7.33;6.87;;;16.90;49.90;;;;;;21037;6684;116827;-72
2023/05/26 04:49:37;;;;;;;7.40;6.90;;;16.80;50.00;;;;;;21034;6684;117069;-73
2023/05/26 04:52:13;;;;;;;7.60;7.00;;;16.40;50.30;;;;;;21055;6684;118203;-74
2023/05/26 04:54:48;;;;;;;8.93;8.13;;;16.30;50.40;;;;;;20619;6684;290952;-73
2023/05/26 04:57:26;;;;;;;8.60;7.90;;;16.30;50.40;;;;;;20820;6684;308895;-74
2023/05/26 05:00:05;;;;;;;9.13;8.43;;;16.70;50.00;;;;;;20823;6684;304563;-75
2023/05/26 05:02:37;;;;;;;8.20;7.43;;;17.00;49.20;;;;;;21045;6684;117626;-78
2023/05/26 05:05:16;;;;;;;8.73;8.02;;;16.90;49.20;;;;;;20831;6684;313240;-74
2023/05/26 05:07:50;;;;;;;8.80;8.10;;;17.00;49.50;;;;;;20813;6684;309025;-74
2023/05/26 05:10:25;;;;;;;7.83;7.13;;;17.20;49.20;;;;;;21053;6684;116811;-74
2023/05/26 05:13:00;;;;;;;8.30;7.60;;;17.10;49.20;;;;;;20788;6684;277570;-76
2023/05/26 05:15:36;;;;;;;7.77;7.00;;;17.10;49.20;;;;;;21026;6684;116887;-77
2023/05/26 05:18:11;;;;;;;7.20;6.50;;;17.00;49.40;;;;;;21022;6684;116801;-73
2023/05/26 05:20:47;;;;;;;8.32;7.72;;;16.80;49.70;;;;;;20827;6684;306839;-75
2023/05/26 05:23:34;;;;;;;8.40;7.70;;;17.20;49.60;;;;;;20740;6684;307092;-75
2023/05/26 05:25:59;;;;;;;7.87;7.20;;;17.20;49.60;;;;;;21047;6684;116971;-75
2023/05/26 05:28:34;;;;;;;8.13;7.53;;;17.20;49.60;;;;;;20838;6684;275494;-76
2023/05/26 05:31:11;;;;;;;8.60;7.82;;;17.50;48.60;;;;;;20828;6684;309484;-74
2023/05/26 05:33:46;;;;;;;9.03;8.33;;;17.50;48.60;;;;;;20684;6684;299768;-74
2023/05/26 05:36:22;;;;;;;9.37;7.90;;;17.80;48.10;;;;;;21039;6684;116798;-75
2023/05/26 05:39:01;;;;;;;8.63;7.97;;;17.60;48.30;;;;;;20833;6684;275995;-76
2023/05/26 05:41:35;;;;;;;8.70;8.00;;;17.70;48.00;;;;;;20808;6684;274799;-74
2023/05/26 05:44:12;;;;;;;7.37;6.77;;;17.80;48.50;;;;;;20900;6684;117509;-75
2023/05/26 05:46:47;;;;;;;8.40;7.70;;;17.80;48.30;;;;;;20827;6684;304895;-79
2023/05/26 05:49:23;;;;;;;9.02;8.32;;;17.90;48.30;;;;;;20808;6684;310520;-77
2023/05/26 05:51:59;;;;;;;9.40;8.50;;;18.30;47.80;;;;;;20827;6684;303566;-73
2023/05/26 05:54:35;;;;;;;8.47;7.60;;;18.30;47.80;;;;;;20870;6684;119427;-74
2023/05/26 05:57:10;;;;;;;8.73;8.03;;;18.20;48.00;;;;;;20832;6684;304946;-73
2023/05/26 05:59:46;;;;;;;9.57;8.70;;;18.20;47.90;;;;;;20811;6684;335931;-75
2023/05/26 06:02:21;;;;;;;8.40;7.80;;;18.60;47.60;;;;;;21043;6684;116739;-75
2023/05/26 06:04:57;;;;;;;8.57;7.77;;;18.50;47.70;;;;;;20819;6684;117315;-75
2023/05/26 06:07:33;;;;;;;8.70;8.00;;;18.30;48.10;;;;;;21029;6684;120912;-75
2023/05/26 06:10:09;;;;;;;10.00;9.10;;;18.50;47.50;;;;;;20824;6684;305295;-74
2023/05/26 06:12:44;;;;;;;9.43;8.40;;;18.40;47.50;;;;;;21038;6684;116874;-76
2023/05/26 06:15:20;;;;;;;9.50;8.60;;;18.60;47.50;;;;;;21043;6684;118125;-75
2023/05/26 06:17:56;;;;;;;10.17;9.27;;;18.90;46.00;;;;;;20829;6684;304822;-75
2023/05/26 06:20:36;;;;;;;9.27;8.60;;;18.90;46.00;;;;;;20831;6684;304197;-75
2023/05/26 06:23:09;;;;;;;9.83;8.83;;;19.70;45.10;;;;;;20776;6684;279940;-75
2023/05/26 06:25:44;;;;;;;10.02;9.02;;;20.60;42.90;;;;;;20816;6684;308965;-73
2023/05/26 06:28:20;;;;;;;9.87;8.47;;;21.40;41.30;;;;;;21049;6684;116976;-73
2023/05/26 06:30:56;;;;;;;8.77;8.13;;;21.80;42.30;;;;;;21029;6684;120492;-74
2023/05/26 06:33:31;;;;;;;9.47;8.63;;;22.00;43.10;;;;;;20941;6684;117592;-73
2023/05/26 06:36:07;;;;;;;9.73;8.90;;;23.10;39.70;;;;;;20827;6684;311155;-75
2023/05/26 06:38:44;;;;;;;9.50;8.70;;;23.50;40.50;;;;;;21051;6684;116730;-75
2023/05/26 06:41:20;;;;;;;9.63;8.83;;;23.50;40.50;;;;;;20834;6684;305291;-75
2023/05/26 06:43:55;;;;;;;8.63;7.83;;;24.20;38.20;;;;;;20916;6684;118133;-74
2023/05/26 06:46:31;;;;;;;9.97;9.10;;;24.50;38.80;;;;;;20829;6684;305257;-74
2023/05/26 06:49:07;;;;;;;9.27;8.32;;;25.00;36.00;;;;;;20826;6684;304056;-74
2023/05/26 06:51:43;;;;;;;10.13;8.77;;;25.90;34.80;;;;;;20813;6684;303366;-74
2023/05/26 06:54:19;;;;;;;10.03;9.03;;;25.90;34.50;;;;;;20674;6684;277545;-74
2023/05/26 06:56:54;;;;;;;12.03;9.73;;;26.30;33.30;;;;;;21041;6684;117391;-74
2023/05/26 06:59:31;;;;;;;9.30;8.27;;;25.60;35.30;;;;;;21028;6684;117210;-74
2023/05/26 07:02:09;;;;;;;8.90;8.10;;;25.60;35.30;;;;;;21043;6684;117394;-74
2023/05/26 07:04:43;;;;;;;8.93;8.07;;;25.20;35.90;;;;;;20852;6684;121480;-74
2023/05/26 07:07:17;;;;;;;9.53;8.73;;;25.00;36.50;;;;;;20828;6684;304826;-75
2023/05/26 07:09:53;;;;;;;8.93;8.10;;;25.20;35.40;;;;;;21030;6684;116784;-75
2023/05/26 07:12:29;;;;;;;10.30;9.40;;;25.20;35.00;;;;;;20832;6684;305922;-75
2023/05/26 07:15:05;;;;;;;9.97;9.07;;;25.30;34.20;;;;;;20655;6740;310409;-76
2023/05/26 07:17:41;;;;;;;10.17;9.27;;;25.50;33.70;;;;;;20796;6684;304373;-78
2023/05/26 07:20:16;;;;;;;9.67;8.67;;;25.40;33.70;;;;;;21046;6684;116986;-76
2023/05/26 07:22:53;;;;;;;11.63;9.20;;;25.20;34.10;;;;;;21016;6684;117085;-77
2023/05/26 07:25:30;;;;;;;10.10;9.10;;;24.80;35.10;;;;;;20814;6684;304462;-74
2023/05/26 07:28:05;;;;;;;8.80;8.00;;;24.80;35.10;;;;;;21052;6684;117603;-78
2023/05/26 07:30:41;;;;;;;10.60;9.60;;;24.70;35.30;;;;;;20838;6684;304408;-76
2023/05/26 07:33:17;;;;;;;10.38;9.57;;;24.70;35.40;;;;;;20776;6684;336383;-75
2023/05/26 07:35:53;;;;;;;10.30;8.00;;;24.80;34.90;;;;;;21034;6684;117008;-77
2023/05/26 07:38:28;;;;;;;8.60;7.90;;;24.60;35.20;;;;;;21050;6684;117367;-76
2023/05/26 07:41:04;;;;;;;9.93;8.90;;;24.30;35.70;;;;;;20838;6684;279173;-75
2023/05/26 07:43:40;;;;;;;10.07;9.03;;;24.50;36.40;;;;;;20926;6684;117738;-73
2023/05/26 07:46:16;;;;;;;9.30;8.50;;;24.40;35.50;;;;;;21048;6684;117011;-74
2023/05/26 07:48:53;;;;;;;8.47;7.63;;;24.20;35.60;;;;;;21036;6684;116820;-73
2023/05/26 07:51:27;;;;;;;10.60;9.40;;;23.90;36.30;;;;;;20818;6684;300966;-75
2023/05/26 07:54:03;;;;;;;9.17;8.23;;;24.20;36.30;;;;;;20917;6684;118372;-74
2023/05/26 07:56:41;;;;;;;10.87;8.97;;;24.30;35.90;;;;;;21043;6684;116664;-75
2023/05/26 07:59:14;;;;;;;9.77;8.83;;;24.20;36.20;;;;;;21048;6684;116863;-74
2023/05/26 08:01:50;;;;;;;10.53;9.47;;;24.30;36.80;;;;;;20814;6684;276125;-74
2023/05/26 08:04:26;;;;;;;10.60;9.80;;;24.30;36.30;;;;;;20669;6684;277493;-74
2023/05/26 08:07:05;;;;;;;9.50;8.70;;;24.80;36.40;;;;;;21053;6684;123789;-74
2023/05/26 08:09:37;;;;;;;10.67;9.17;;;24.80;36.00;;;;;;20818;6684;278210;-74
2023/05/26 08:12:12;;;;;;;9.13;8.23;;;25.10;35.60;;;;;;21051;6684;117729;-74
2023/05/26 08:14:48;;;;;;;11.03;9.27;;;25.00;35.50;;;;;;20633;6684;277940;-74
2023/05/26 08:17:24;;;;;;;11.23;10.13;;;25.10;34.70;;;;;;20826;6684;301476;-77
2023/05/26 08:19:59;;;;;;;10.40;9.30;;;25.40;34.50;;;;;;20846;6684;286150;-78
2023/05/26 08:22:38;;;;;;;9.47;8.37;;;25.70;35.50;;;;;;21055;6684;116934;-76
2023/05/26 08:25:13;;;;;;;9.57;8.57;;;25.80;35.20;;;;;;20832;6684;283964;-78
2023/05/26 08:27:46;;;;;;;9.03;8.33;;;25.90;33.90;;;;;;21045;6684;120579;-77
2023/05/26 08:30:21;;;;;;;9.97;8.83;;;25.90;34.10;;;;;;21061;6684;116818;-76
2023/05/26 08:32:57;;;;;;;9.30;8.43;;;25.70;34.40;;;;;;21001;6684;116754;-76
2023/05/26 08:35:35;;;;;;;9.00;8.10;;;25.50;34.60;;;;;;21040;6684;143570;-77
2023/05/26 08:38:10;;;;;;;9.70;8.80;;;25.60;33.90;;;;;;20833;6684;304840;-76
2023/05/26 08:40:46;;;;;;;9.97;8.23;;;25.60;33.90;;;;;;21046;6684;116730;-77
2023/05/26 08:43:21;;;;;;;9.17;7.90;;;25.70;34.00;;;;;;20960;6684;117186;-77
2023/05/26 08:45:58;;;;;;;8.50;7.77;;;25.50;35.10;;;;;;20996;6699;115988;-77
2023/05/26 08:48:33;;;;;;;9.20;8.40;;;25.50;34.40;;;;;;20956;6714;116894;-77
2023/05/26 08:51:09;;;;;;;9.53;8.73;;;25.50;34.40;;;;;;20741;6714;310120;-75
2023/05/26 08:53:44;;;;;;;14.87;8.90;;;25.80;33.80;;;;;;20854;6714;117316;-76
2023/05/26 08:56:34;;;;;;;10.00;7.67;;;26.00;33.60;;;;;;20948;6714;117403;-77
2023/05/26 08:59:10;;;;;;;9.83;8.90;;;26.00;34.30;;;;;;20746;6714;310916;-75
2023/05/26 09:01:47;;;;;;;10.27;9.10;;;26.30;34.50;;;;;;20765;6699;315476;-76
2023/05/26 09:04:23;;;;;;;9.97;8.97;;;27.10;33.40;;;;;;20677;6684;307817;-75
2023/05/26 09:06:59;;;;;;;9.70;8.70;;;27.10;32.70;;;;;;21055;6684;117190;-77
2023/05/26 09:09:37;;;;;;;9.00;8.17;;;27.10;32.80;;;;;;21040;6684;117654;-78
2023/05/26 09:12:13;;;;;;;9.17;8.30;;;26.90;33.10;;;;;;21012;6699;120570;-77
2023/05/26 09:14:51;;;;;;;9.60;8.27;;;26.70;33.40;;;;;;20799;6699;122992;-76
2023/05/26 09:17:24;;;;;;;10.00;9.10;;;26.70;33.70;;;;;;21033;6699;119676;-77
2023/05/26 09:20:00;;;;;;;10.27;9.27;;;26.60;33.70;;;;;;20735;6717;305559;-76
2023/05/26 09:22:37;;;;;;;9.43;8.53;;;26.90;33.50;;;;;;20745;6714;277219;-75
2023/05/26 09:25:12;;;;;;;10.17;9.17;;;27.30;32.10;;;;;;21000;6699;116790;-77
2023/05/26 09:27:48;;;;;;;9.50;8.60;;;27.20;31.80;;;;;;20804;6699;308509;-77
2023/05/26 09:30:23;;;;;;;9.97;8.93;;;27.30;31.60;;;;;;20743;6714;281087;-75
2023/05/26 09:32:59;;;;;;;11.10;10.00;;;27.50;31.60;;;;;;20749;6699;336652;-77
2023/05/26 09:35:36;;;;;;;10.30;8.50;;;27.60;31.30;;;;;;20977;6699;121015;-76
2023/05/26 09:38:12;;;;;;;11.67;7.60;;;27.50;31.70;;;;;;21015;6699;117072;-76
2023/05/26 09:40:47;;;;;;;12.57;9.23;;;27.20;32.40;;;;;;20782;6699;312435;-75
2023/05/26 09:43:26;;;;;;;8.73;7.83;;;27.30;32.30;;;;;;20901;6699;147798;-74
2023/05/26 09:46:01;;;;;;;10.57;8.63;;;27.30;32.40;;;;;;20783;6699;303315;-74
2023/05/26 09:48:36;;;;;;;8.70;8.00;;;27.60;32.20;;;;;;20779;6699;309987;-75
2023/05/26 09:51:11;;;;;;;8.40;7.70;;;27.60;32.20;;;;;;21000;6699;116588;-74
2023/05/26 09:53:46;;;;;;;9.67;7.10;;;27.60;32.00;;;;;;20896;6688;117681;-75
2023/05/26 09:56:21;;;;;;;7.73;6.93;;;27.50;32.30;;;;;;21003;6699;117204;-74
2023/05/26 09:58:58;;;;;;;8.80;7.65;;;27.60;31.60;;;;;;20742;6699;334812;-74
2023/05/26 10:01:33;;;;;;;8.03;7.23;;;27.60;31.60;;;;;;20986;6699;122552;-74
2023/05/26 10:04:09;;;;;;;9.57;8.53;;;27.70;31.80;;;;;;20645;6699;314989;-74
2023/05/26 10:06:46;;;;;;;9.17;8.17;;;27.90;31.80;;;;;;20778;6699;275631;-73
2023/05/26 10:09:21;;;;;;;8.50;7.80;;;28.10;30.90;;;;;;20985;6699;117251;-75
2023/05/26 10:11:57;;;;;;;13.30;8.73;;;28.10;31.70;;;;;;20840;6684;305322;-75
2023/05/26 10:14:35;;;;;;;10.87;7.93;;;28.20;30.80;;;;;;20594;6699;296109;-76
2023/05/26 10:17:09;;;;;;;8.23;7.43;;;28.50;31.50;;;;;;20779;6698;306134;-76
2023/05/26 10:19:45;;;;;;;10.70;8.50;;;28.70;30.80;;;;;;20762;6699;304567;-75
2023/05/26 10:22:35;;;;;;;8.30;7.60;;;28.90;29.80;;;;;;20781;6699;306632;-75
2023/05/26 10:25:23;;;;;;;8.73;7.83;;;29.00;29.10;;;;;;21034;6684;116826;-75
2023/05/26 10:27:59;;;;;;;9.57;8.27;;;28.80;29.70;;;;;;20765;6699;334007;-75
2023/05/26 10:30:34;;;;;;;8.80;8.00;;;28.60;30.00;;;;;;20982;6699;117324;-76
2023/05/26 10:33:10;;;;;;;8.10;7.30;;;28.50;30.50;;;;;;20950;6699;118485;-76
2023/05/26 10:35:53;;;;;;;8.00;7.23;;;28.20;30.80;;;;;;20719;6714;276604;-76
2023/05/26 10:38:28;;;;;;;7.57;6.87;;;28.20;32.00;;;;;;20933;6714;118508;-76
2023/05/26 10:41:03;;;;;;;7.50;6.90;;;28.20;31.50;;;;;;20965;6702;118436;-81
2023/05/26 10:43:42;;;;;;;8.80;7.90;;;28.00;31.20;;;;;;20661;6684;283963;-73
2023/05/26 10:46:14;;;;;;;7.27;6.67;;;28.00;30.30;;;;;;20997;6684;116841;-74
2023/05/26 10:48:55;;;;;;;8.10;7.30;;;28.10;31.00;;;;;;20747;6684;305319;-76
2023/05/26 10:51:31;;;;;;;8.05;7.15;;;28.10;30.90;;;;;;20726;6699;278079;-77
2023/05/26 10:54:17;;;;;;;8.02;7.28;;;28.40;30.80;;;;;;20643;6684;316280;-76
2023/05/26 10:56:51;;;;;;;7.95;6.65;;;28.70;30.10;;;;;;20789;6684;303963;-75
2023/05/26 10:59:33;;;;;;;8.43;7.18;;;28.80;29.90;;;;;;20770;6699;305959;-77
2023/05/26 11:02:09;;;;;;;8.57;7.67;;;28.90;30.40;;;;;;20827;6684;275602;-75
2023/05/26 11:04:45;;;;;;;8.30;7.60;;;29.00;30.00;;;;;;20561;6699;312250;-76
2023/05/26 11:07:20;;;;;;;9.80;7.13;;;29.00;29.80;;;;;;20977;6699;118021;-74
2023/05/26 11:10:02;;;;;;;8.10;7.23;;;28.80;30.10;;;;;;21003;6699;117022;-74
2023/05/26 11:12:47;;;;;;;8.80;7.90;;;28.50;30.90;;;;;;20774;6699;305362;-74
2023/05/26 11:15:26;;;;;;;8.17;7.33;;;28.40;30.80;;;;;;20810;6684;275686;-76
2023/05/26 11:18:08;;;;;;;7.87;7.13;;;28.60;31.00;;;;;;20789;6699;276135;-76
2023/05/26 11:20:47;;;;;;;9.17;7.87;;;28.70;31.10;;;;;;20736;6714;275767;-80
2023/05/26 11:23:22;;;;;;;9.07;7.77;;;28.80;30.50;;;;;;20640;6714;313254;-75
2023/05/26 11:25:58;;;;;;;9.50;7.40;;;28.80;31.00;;;;;;20740;6714;276340;-75
2023/05/26 11:28:36;;;;;;;8.25;7.25;;;28.90;31.10;;;;;;20735;6713;322702;-76
2023/05/26 11:31:14;;;;;;;7.07;6.43;;;28.90;31.10;;;;;;21008;6699;116859;-75
2023/05/26 11:33:50;;;;;;;8.07;7.33;;;28.60;31.20;;;;;;20802;6713;117222;-75
2023/05/26 11:36:26;;;;;;;8.70;7.07;;;28.30;31.60;;;;;;20968;6714;116845;-77
2023/05/26 11:39:01;;;;;;;8.20;7.37;;;28.00;32.30;;;;;;20742;6714;306396;-77
2023/05/26 11:41:40;;;;;;;9.20;7.47;;;28.00;33.00;;;;;;20766;6699;275991;-75
2023/05/26 11:44:12;;;;;;;8.57;7.57;;;28.30;32.40;;;;;;20621;6714;312573;-74
2023/05/26 11:46:48;;;;;;;7.10;6.23;;;28.50;31.30;;;;;;20994;6699;116642;-73
2023/05/26 11:49:24;;;;;;;7.80;7.00;;;28.50;31.50;;;;;;20939;6714;117013;-74
2023/05/26 11:51:59;;;;;;;9.23;6.53;;;28.20;31.30;;;;;;20951;6714;117494;-72
2023/05/26 11:54:35;;;;;;;7.87;7.00;;;27.90;31.90;;;;;;20580;6699;278500;-74
2023/05/26 11:57:24;;;;;;;7.60;6.93;;;27.90;32.10;;;;;;20794;6699;292329;-74
2023/05/26 12:00:05;;;;;;;8.27;7.00;;;28.30;31.50;;;;;;20727;6714;333984;-74
2023/05/26 12:02:37;;;;;;;7.72;6.78;;;28.30;31.50;;;;;;20740;6714;336810;-75
2023/05/26 12:05:29;;;;;;;8.20;7.50;;;28.40;31.00;;;;;;20787;6699;280738;-73
2023/05/26 12:08:11;;;;;;;9.33;6.97;;;28.50;32.00;;;;;;20781;6699;305715;-76
2023/05/26 12:10:49;;;;;;;8.30;7.50;;;28.50;32.00;;;;;;20761;6703;304976;-76
2023/05/26 12:13:33;;;;;;;8.47;7.53;;;28.60;32.30;;;;;;20688;6699;307028;-75
2023/05/26 12:16:18;;;;;;;6.97;6.37;;;28.60;31.30;;;;;;21035;6688;116720;-77
2023/05/26 12:18:54;;;;;;;9.90;8.18;;;28.20;31.30;;;;;;20825;6684;310041;-74
2023/05/26 12:21:29;;;;;;;8.00;7.20;;;28.10;31.70;;;;;;20995;6699;116920;-73
2023/05/26 12:24:05;;;;;;;7.90;7.10;;;27.80;32.00;;;;;;20644;6699;308359;-79
2023/05/26 12:26:42;;;;;;;8.67;7.43;;;27.70;33.10;;;;;;20796;6699;278507;-73
2023/05/26 12:29:19;;;;;;;7.60;7.00;;;27.80;32.00;;;;;;20789;6699;276191;-75
2023/05/26 12:31:53;;;;;;;7.50;6.90;;;27.90;31.90;;;;;;20966;6699;116880;-77
2023/05/26 12:34:28;;;;;;;8.80;7.33;;;27.70;32.30;;;;;;20857;6684;118141;-76
2023/05/26 12:37:05;;;;;;;6.47;6.07;;;27.50;32.60;;;;;;21049;6684;116638;-77
2023/05/26 12:39:40;;;;;;;6.80;6.10;;;27.20;33.00;;;;;;21029;6684;118634;-77
2023/05/26 12:42:16;;;;;;;7.70;7.00;;;27.00;33.40;;;;;;21051;6684;118125;-78
2023/05/26 12:44:52;;;;;;;8.40;7.30;;;26.80;33.50;;;;;;20627;6684;281984;-78
2023/05/26 12:47:28;;;;;;;7.80;7.03;;;27.40;33.20;;;;;;20805;6684;305531;-77
2023/05/26 12:50:04;;;;;;;8.97;6.87;;;27.40;33.20;;;;;;21044;6684;117360;-74
2023/05/26 12:52:40;;;;;;;7.43;6.73;;;27.40;32.90;;;;;;20776;6699;310575;-73
2023/05/26 12:55:15;;;;;;;7.23;6.53;;;27.40;32.20;;;;;;20999;6699;118489;-74
2023/05/26 12:57:52;;;;;;;8.20;7.40;;;27.30;33.00;;;;;;20770;6699;290109;-75
2023/05/26 13:00:28;;;;;;;7.20;6.50;;;27.40;32.80;;;;;;20992;6699;119512;-73
2023/05/26 13:03:04;;;;;;;7.27;6.50;;;27.50;33.60;;;;;;20790;6684;306967;-73
2023/05/26 13:05:39;;;;;;;7.00;6.40;;;27.50;33.60;;;;;;20805;6684;302674;-73
2023/05/26 13:08:15;;;;;;;7.57;6.87;;;27.80;34.00;;;;;;20999;6699;116837;-75
2023/05/26 13:10:50;;;;;;;7.17;6.47;;;27.80;34.00;;;;;;21057;6684;116678;-72
2023/05/26 13:13:26;;;;;;;7.20;6.50;;;27.40;33.50;;;;;;20916;6699;117884;-74
2023/05/26 13:16:02;;;;;;;6.03;5.53;;;27.40;33.50;;;;;;21051;6684;117255;-73
2023/05/26 13:18:42;;;;;;;7.43;6.40;;;27.00;33.40;;;;;;20789;6699;276503;-72
2023/05/26 13:21:17;;;;;;;7.15;6.55;;;27.20;32.90;;;;;;20792;6699;276072;-72